createdAt,value
2022-11-05T00:00:19.877Z,18.38
2022-11-05T00:05:42.605Z,19.33
2022-11-05T00:11:04.558Z,21.20
2022-11-05T00:16:26.365Z,20.08
2022-11-05T00:21:48.162Z,17.15
2022-11-05T00:27:10.407Z,18.80
2022-11-05T00:32:32.569Z,18.15
2022-11-05T00:37:54.402Z,17.70
2022-11-05T00:43:16.490Z,19.85
2022-11-05T00:48:38.341Z,18.63
2022-11-05T00:54:00.159Z,19.10
2022-11-05T00:59:21.932Z,18.13
2022-11-05T01:04:43.962Z,21.17
2022-11-05T01:10:06.315Z,19.60
2022-11-05T01:15:28.108Z,18.55
2022-11-05T01:20:50.569Z,22.45
2022-11-05T01:26:12.399Z,15.68
2022-11-05T01:31:34.193Z,18.55
2022-11-05T01:36:56.004Z,18.08
2022-11-05T01:42:24.510Z,16.63
2022-11-05T01:48:12.867Z,19.65
2022-11-05T01:53:41.845Z,17.10
2022-11-05T01:59:10.249Z,17.02
2022-11-05T02:04:40.054Z,17.77
2022-11-05T02:10:08.031Z,16.52
2022-11-05T02:16:02.146Z,19.52
2022-11-05T02:21:29.943Z,22.70
2022-11-05T02:26:54.476Z,17.50
2022-11-05T02:32:31.120Z,16.25
2022-11-05T02:43:22.408Z,17.88
2022-11-05T02:49:05.547Z,18.00
2022-11-05T02:54:32.026Z,14.82
2022-11-05T03:00:07.648Z,17.58
2022-11-05T03:05:49.575Z,18.27
2022-11-05T03:11:18.034Z,20.63
2022-11-05T03:16:43.021Z,19.20
2022-11-05T03:22:29.173Z,20.42
2022-11-05T03:27:57.552Z,15.45
2022-11-05T03:33:25.363Z,20.83
2022-11-05T03:38:51.737Z,21.70
2022-11-05T03:44:17.356Z,22.05
2022-11-05T03:49:43.867Z,22.35
2022-11-05T03:55:06.093Z,26.38
2022-11-05T04:00:27.989Z,18.98
2022-11-05T04:05:50.635Z,19.13
2022-11-05T04:11:12.479Z,18.70
2022-11-05T04:16:34.272Z,24.00
2022-11-05T04:21:56.094Z,20.65
2022-11-05T04:27:17.963Z,19.80
2022-11-05T04:32:39.840Z,21.33
2022-11-05T04:38:01.951Z,19.15
2022-11-05T04:43:24.028Z,26.58
2022-11-05T04:48:46.003Z,22.33
2022-11-05T04:54:07.778Z,23.55
2022-11-05T04:59:29.625Z,26.70
2022-11-05T05:04:51.427Z,20.90
2022-11-05T05:10:13.270Z,23.92
2022-11-05T05:15:35.082Z,21.52
2022-11-05T05:20:58.039Z,21.75
2022-11-05T05:26:19.867Z,20.90
2022-11-05T05:31:42.458Z,22.38
2022-11-05T05:37:04.274Z,23.25
2022-11-05T05:42:26.106Z,25.38
2022-11-05T05:47:47.945Z,24.02
2022-11-05T05:53:10.089Z,22.73
2022-11-05T05:58:38.702Z,24.98
2022-11-05T06:04:00.571Z,22.55
2022-11-05T06:09:22.388Z,23.45
2022-11-05T06:14:44.231Z,24.20
2022-11-05T06:20:07.736Z,23.30
2022-11-05T06:25:29.790Z,23.90
2022-11-05T06:30:51.615Z,24.33
2022-11-05T06:36:15.532Z,26.67
2022-11-05T06:41:56.939Z,22.17
2022-11-05T06:47:19.684Z,24.55
2022-11-05T06:52:41.548Z,25.27
2022-11-05T06:58:03.891Z,24.70
2022-11-05T07:03:25.737Z,23.95
2022-11-05T07:08:47.535Z,25.02
2022-11-05T07:14:09.400Z,27.45
2022-11-05T07:19:31.287Z,25.83
2022-11-05T07:24:53.174Z,22.38
2022-11-05T07:30:15.150Z,23.33
2022-11-05T07:35:37.006Z,27.50
2022-11-05T07:41:01.828Z,22.40
2022-11-05T07:46:23.663Z,25.88
2022-11-05T07:51:45.473Z,42.88
2022-11-05T07:57:07.292Z,25.50
2022-11-05T08:02:29.231Z,26.50
2022-11-05T08:07:52.954Z,24.05
2022-11-05T08:13:15.765Z,26.67
2022-11-05T08:18:38.068Z,25.88
2022-11-05T08:23:59.909Z,26.27
2022-11-05T08:29:21.867Z,30.30
2022-11-05T08:34:43.805Z,23.13
2022-11-05T08:40:06.252Z,24.98
2022-11-05T08:45:28.768Z,25.50
2022-11-05T08:50:50.611Z,27.40
2022-11-05T08:56:12.486Z,33.25
2022-11-05T09:01:34.421Z,26.90
2022-11-05T09:06:56.329Z,29.60
2022-11-05T09:12:18.139Z,24.10
2022-11-05T09:17:40.088Z,28.38
2022-11-05T09:23:02.344Z,24.80
2022-11-05T09:28:24.168Z,26.55
2022-11-05T09:33:46.050Z,24.77
2022-11-05T09:39:08.047Z,29.42
2022-11-05T09:44:42.677Z,27.83
2022-11-05T09:50:12.940Z,29.38
2022-11-05T09:55:41.170Z,26.10
2022-11-05T10:01:06.789Z,28.60
2022-11-05T10:06:29.219Z,30.00
2022-11-05T10:12:21.176Z,31.98
2022-11-05T10:17:48.678Z,28.15
2022-11-05T10:23:14.147Z,30.27
2022-11-05T10:28:36.707Z,34.72
2022-11-05T10:34:02.351Z,35.47
2022-11-05T10:39:25.518Z,29.05
2022-11-05T10:44:52.826Z,32.85
2022-11-05T10:50:21.628Z,35.55
2022-11-05T10:55:48.708Z,29.73
2022-11-05T11:01:12.270Z,35.70
2022-11-05T11:06:36.325Z,30.00
2022-11-05T11:12:02.473Z,35.15
2022-11-05T11:23:11.411Z,33.95
2022-11-05T11:28:40.660Z,37.72
2022-11-05T11:34:06.107Z,33.30
2022-11-05T11:39:30.554Z,36.80
2022-11-05T11:44:53.051Z,35.20
2022-11-05T11:50:37.325Z,33.90
2022-11-05T11:56:02.200Z,37.03
2022-11-05T12:01:42.271Z,35.53
2022-11-05T12:07:09.931Z,34.78
2022-11-05T12:12:37.663Z,33.92
2022-11-05T12:18:05.485Z,42.45
2022-11-05T12:23:51.117Z,38.70
2022-11-05T12:29:40.308Z,38.07
2022-11-05T12:35:30.007Z,39.25
2022-11-05T12:40:57.788Z,37.58
2022-11-05T12:46:29.090Z,41.65
2022-11-05T12:52:00.009Z,40.03
2022-11-05T12:57:23.047Z,41.00
2022-11-05T13:03:03.602Z,38.13
2022-11-05T13:08:36.468Z,38.53
2022-11-05T13:14:13.272Z,45.38
2022-11-05T13:19:45.005Z,42.47
2022-11-05T13:25:17.037Z,41.22
2022-11-05T13:30:44.076Z,40.08
2022-11-05T13:36:12.194Z,39.13
2022-11-05T13:41:53.357Z,35.28
2022-11-05T13:47:28.003Z,36.95
2022-11-05T13:53:02.706Z,34.13
2022-11-05T13:58:30.335Z,38.30
2022-11-05T14:03:55.561Z,34.55
2022-11-05T14:09:23.931Z,38.22
2022-11-05T14:14:55.864Z,38.42
2022-11-05T14:20:32.626Z,36.17
2022-11-05T14:26:21.901Z,34.92
2022-11-05T14:32:07.813Z,35.03
2022-11-05T14:37:40.109Z,38.97
2022-11-05T14:43:07.549Z,36.90
2022-11-05T14:48:38.123Z,38.38
2022-11-05T14:54:05.169Z,36.85
2022-11-05T14:59:26.932Z,37.15
2022-11-05T15:04:48.933Z,30.05
2022-11-05T15:10:17.179Z,36.70
2022-11-05T15:15:43.648Z,36.45
2022-11-05T15:21:10.551Z,31.83
2022-11-05T15:26:47.518Z,34.90
2022-11-05T15:32:30.768Z,30.73
2022-11-05T15:38:02.260Z,32.37
2022-11-05T15:43:24.624Z,25.60
2022-11-05T15:49:14.117Z,22.65
2022-11-05T15:54:36.322Z,23.65
2022-11-05T15:59:58.487Z,25.33
2022-11-05T16:05:21.160Z,24.33
2022-11-05T16:10:48.460Z,28.63
2022-11-05T16:16:16.106Z,24.65
2022-11-05T16:21:53.866Z,26.90
2022-11-05T16:27:21.241Z,29.27
2022-11-05T16:32:43.134Z,27.30
2022-11-05T16:38:05.105Z,24.60
2022-11-05T16:43:27.338Z,26.15
2022-11-05T16:48:49.521Z,29.88
2022-11-05T16:54:11.453Z,28.85
2022-11-05T16:59:34.292Z,25.52
2022-11-05T17:04:56.178Z,30.42
2022-11-05T17:10:19.397Z,31.17
2022-11-05T17:15:42.920Z,32.83
2022-11-05T17:21:05.266Z,38.08
2022-11-05T17:26:27.136Z,34.55
2022-11-05T17:31:49.013Z,33.03
2022-11-05T17:37:10.856Z,33.80
2022-11-05T17:42:33.134Z,33.28
2022-11-05T17:47:55.135Z,31.75
2022-11-05T17:53:19.063Z,33.88
2022-11-05T17:58:41.110Z,31.92
2022-11-05T18:04:08.622Z,32.10
2022-11-05T18:09:31.331Z,37.03
2022-11-05T18:14:53.172Z,34.92
2022-11-05T18:20:19.233Z,32.65
2022-11-05T18:25:42.298Z,33.35
2022-11-05T18:31:08.214Z,34.72
2022-11-05T18:36:32.218Z,37.30
2022-11-05T18:41:54.044Z,34.85
2022-11-05T18:47:16.083Z,31.73
2022-11-05T18:52:37.922Z,31.38
2022-11-05T18:57:59.772Z,34.20
2022-11-05T19:03:21.596Z,35.28
2022-11-05T19:08:44.458Z,31.20
2022-11-05T19:14:07.224Z,29.23
2022-11-05T19:19:29.390Z,26.67
2022-11-05T19:24:51.439Z,24.85
2022-11-05T19:30:13.435Z,18.88
2022-11-05T19:35:41.323Z,15.35
2022-11-05T19:41:08.901Z,16.25
2022-11-05T19:46:31.502Z,16.20
2022-11-05T19:51:53.517Z,17.25
2022-11-05T19:57:15.319Z,15.52
2022-11-05T20:02:37.406Z,16.33
2022-11-05T20:07:59.333Z,13.27
2022-11-05T20:13:21.413Z,13.70
2022-11-05T20:18:43.245Z,15.35
2022-11-05T20:24:05.650Z,19.52
2022-11-05T20:29:33.892Z,13.40
2022-11-05T20:34:57.130Z,12.95
2022-11-05T20:40:19.077Z,14.43
2022-11-05T20:45:40.906Z,16.92
2022-11-05T20:51:08.301Z,15.77
2022-11-05T20:56:32.266Z,15.95
2022-11-05T21:01:54.254Z,16.25
2022-11-05T21:07:16.191Z,18.48
2022-11-05T21:12:38.067Z,19.10
2022-11-05T21:18:00.459Z,20.60
2022-11-05T21:23:22.967Z,18.13
2022-11-05T21:28:44.825Z,20.98
2022-11-05T21:34:06.653Z,22.30
2022-11-05T21:39:28.484Z,17.80
2022-11-05T21:44:50.311Z,22.52
2022-11-05T21:50:12.186Z,20.20
2022-11-05T21:55:34.133Z,20.75
2022-11-05T22:00:55.987Z,18.95
2022-11-05T22:06:17.791Z,21.23
2022-11-05T22:11:39.634Z,25.48
2022-11-05T22:17:01.684Z,19.67
2022-11-05T22:22:23.529Z,24.25
2022-11-05T22:27:45.717Z,24.65
2022-11-05T22:33:07.675Z,22.17
2022-11-05T22:38:30.711Z,23.50
2022-11-05T22:43:52.594Z,21.67
2022-11-05T22:49:14.911Z,22.80
2022-11-05T22:54:39.423Z,25.45
2022-11-05T23:00:01.641Z,22.88
2022-11-05T23:05:23.638Z,22.92
2022-11-05T23:10:45.463Z,21.77
2022-11-05T23:16:07.597Z,16.02
2022-11-05T23:21:29.406Z,19.15
2022-11-05T23:26:51.276Z,19.58
2022-11-05T23:32:13.151Z,19.23
2022-11-05T23:37:34.981Z,20.30
2022-11-05T23:42:57.557Z,20.35
2022-11-05T23:48:37.178Z,18.55
2022-11-05T23:53:59.017Z,22.85
2022-11-05T23:59:20.901Z,20.05
